sensor_id;sensor_type;location;lat;lon;timestamp;temperature;humidity
9466;DHT22;4771;48.726;9.006;2022-11-03T00:01:07;7.40;99.90
9466;DHT22;4771;48.726;9.006;2022-11-03T00:03:34;7.40;99.90
9466;DHT22;4771;48.726;9.006;2022-11-03T00:06:01;7.30;99.90
9466;DHT22;4771;48.726;9.006;2022-11-03T00:08:36;7.30;99.90
9466;DHT22;4771;48.726;9.006;2022-11-03T00:11:05;7.30;99.90
9466;DHT22;4771;48.726;9.006;2022-11-03T00:13:33;7.30;99.90
9466;DHT22;4771;48.726;9.006;2022-11-03T00:16:01;7.20;99.90
9466;DHT22;4771;48.726;9.006;2022-11-03T00:18:28;7.20;99.90
9466;DHT22;4771;48.726;9.006;2022-11-03T00:20:56;7.20;99.90
9466;DHT22;4771;48.726;9.006;2022-11-03T00:23:25;7.20;99.90
9466;DHT22;4771;48.726;9.006;2022-11-03T00:25:54;7.30;99.90
9466;DHT22;4771;48.726;9.006;2022-11-03T00:28:21;7.30;99.90
9466;DHT22;4771;48.726;9.006;2022-11-03T00:30:48;7.20;99.90
9466;DHT22;4771;48.726;9.006;2022-11-03T00:33:15;7.20;99.90
9466;DHT22;4771;48.726;9.006;2022-11-03T00:35:42;7.20;99.90
9466;DHT22;4771;48.726;9.006;2022-11-03T00:38:09;7.10;99.90
9466;DHT22;4771;48.726;9.006;2022-11-03T00:40:36;7.00;99.90
9466;DHT22;4771;48.726;9.006;2022-11-03T00:43:04;7.00;99.90
9466;DHT22;4771;48.726;9.006;2022-11-03T00:45:31;7.00;99.90
9466;DHT22;4771;48.726;9.006;2022-11-03T00:47:58;7.00;99.90
9466;DHT22;4771;48.726;9.006;2022-11-03T00:50:42;7.00;99.90
9466;DHT22;4771;48.726;9.006;2022-11-03T00:53:09;7.00;99.90
9466;DHT22;4771;48.726;9.006;2022-11-03T00:55:36;7.00;99.90
9466;DHT22;4771;48.726;9.006;2022-11-03T00:58:04;7.00;99.90
9466;DHT22;4771;48.726;9.006;2022-11-03T01:00:31;7.00;99.90
9466;DHT22;4771;48.726;9.006;2022-11-03T01:02:58;7.00;99.90
9466;DHT22;4771;48.726;9.006;2022-11-03T01:05:25;7.00;99.90
9466;DHT22;4771;48.726;9.006;2022-11-03T01:08:09;7.00;99.90
9466;DHT22;4771;48.726;9.006;2022-11-03T01:10:36;7.00;99.90
9466;DHT22;4771;48.726;9.006;2022-11-03T01:13:25;7.00;99.90
9466;DHT22;4771;48.726;9.006;2022-11-03T01:15:55;6.90;99.90
9466;DHT22;4771;48.726;9.006;2022-11-03T01:18:23;6.90;99.90
9466;DHT22;4771;48.726;9.006;2022-11-03T01:20:53;6.90;99.90
9466;DHT22;4771;48.726;9.006;2022-11-03T01:23:21;6.90;99.90
9466;DHT22;4771;48.726;9.006;2022-11-03T01:25:48;7.00;99.90
9466;DHT22;4771;48.726;9.006;2022-11-03T01:28:15;6.90;99.90
9466;DHT22;4771;48.726;9.006;2022-11-03T01:30:43;6.90;99.90
9466;DHT22;4771;48.726;9.006;2022-11-03T01:33:10;6.80;99.90
9466;DHT22;4771;48.726;9.006;2022-11-03T01:35:37;6.80;99.90
9466;DHT22;4771;48.726;9.006;2022-11-03T01:38:04;6.70;99.90
9466;DHT22;4771;48.726;9.006;2022-11-03T01:40:31;6.70;99.90
9466;DHT22;4771;48.726;9.006;2022-11-03T01:43:13;6.70;99.90
9466;DHT22;4771;48.726;9.006;2022-11-03T01:45:40;6.70;99.90
9466;DHT22;4771;48.726;9.006;2022-11-03T01:48:10;6.70;99.90
9466;DHT22;4771;48.726;9.006;2022-11-03T01:50:40;6.70;99.90
9466;DHT22;4771;48.726;9.006;2022-11-03T01:53:09;6.70;99.90
9466;DHT22;4771;48.726;9.006;2022-11-03T01:55:37;6.60;99.90
9466;DHT22;4771;48.726;9.006;2022-11-03T01:58:07;6.60;99.90
9466;DHT22;4771;48.726;9.006;2022-11-03T02:00:36;6.70;99.90
9466;DHT22;4771;48.726;9.006;2022-11-03T02:03:04;6.60;99.90
9466;DHT22;4771;48.726;9.006;2022-11-03T02:05:33;6.60;99.90
9466;DHT22;4771;48.726;9.006;2022-11-03T02:08:04;6.60;99.90
9466;DHT22;4771;48.726;9.006;2022-11-03T02:10:34;6.60;99.90
9466;DHT22;4771;48.726;9.006;2022-11-03T02:13:07;6.60;99.90
9466;DHT22;4771;48.726;9.006;2022-11-03T02:15:37;6.50;99.90
9466;DHT22;4771;48.726;9.006;2022-11-03T02:18:05;6.50;99.90
9466;DHT22;4771;48.726;9.006;2022-11-03T02:20:34;6.50;99.90
9466;DHT22;4771;48.726;9.006;2022-11-03T02:23:19;6.50;99.90
9466;DHT22;4771;48.726;9.006;2022-11-03T02:25:51;6.60;99.90
9466;DHT22;4771;48.726;9.006;2022-11-03T02:28:20;6.60;99.90
9466;DHT22;4771;48.726;9.006;2022-11-03T02:30:54;6.50;99.90
9466;DHT22;4771;48.726;9.006;2022-11-03T02:33:36;6.40;99.90
9466;DHT22;4771;48.726;9.006;2022-11-03T02:36:09;6.40;99.90
9466;DHT22;4771;48.726;9.006;2022-11-03T02:38:44;6.30;99.90
9466;DHT22;4771;48.726;9.006;2022-11-03T02:41:15;6.30;99.90
9466;DHT22;4771;48.726;9.006;2022-11-03T02:43:44;6.30;99.90
9466;DHT22;4771;48.726;9.006;2022-11-03T02:46:13;6.20;99.90
9466;DHT22;4771;48.726;9.006;2022-11-03T02:48:40;6.20;99.90
9466;DHT22;4771;48.726;9.006;2022-11-03T02:51:08;6.30;99.90
9466;DHT22;4771;48.726;9.006;2022-11-03T02:53:40;6.20;99.90
9466;DHT22;4771;48.726;9.006;2022-11-03T02:56:11;6.30;99.90
9466;DHT22;4771;48.726;9.006;2022-11-03T02:58:45;6.20;99.90
9466;DHT22;4771;48.726;9.006;2022-11-03T03:01:18;6.30;99.90
9466;DHT22;4771;48.726;9.006;2022-11-03T03:03:51;6.10;99.90
9466;DHT22;4771;48.726;9.006;2022-11-03T03:06:22;6.10;99.90
9466;DHT22;4771;48.726;9.006;2022-11-03T03:08:53;6.20;99.90
9466;DHT22;4771;48.726;9.006;2022-11-03T03:11:22;6.30;99.90
9466;DHT22;4771;48.726;9.006;2022-11-03T03:14:06;6.20;99.90
9466;DHT22;4771;48.726;9.006;2022-11-03T03:16:41;6.20;99.90
9466;DHT22;4771;48.726;9.006;2022-11-03T03:19:15;6.30;99.90
9466;DHT22;4771;48.726;9.006;2022-11-03T03:21:45;6.30;99.90
9466;DHT22;4771;48.726;9.006;2022-11-03T03:24:17;6.30;99.90
9466;DHT22;4771;48.726;9.006;2022-11-03T03:26:47;6.40;99.90
9466;DHT22;4771;48.726;9.006;2022-11-03T03:29:20;6.50;99.90
9466;DHT22;4771;48.726;9.006;2022-11-03T03:31:54;6.30;99.90
9466;DHT22;4771;48.726;9.006;2022-11-03T03:34:25;6.20;99.90
9466;DHT22;4771;48.726;9.006;2022-11-03T03:36:55;6.20;99.90
9466;DHT22;4771;48.726;9.006;2022-11-03T03:39:27;6.20;99.90
9466;DHT22;4771;48.726;9.006;2022-11-03T03:41:56;6.20;99.90
9466;DHT22;4771;48.726;9.006;2022-11-03T03:44:26;6.20;99.90
9466;DHT22;4771;48.726;9.006;2022-11-03T03:47:00;6.20;99.90
9466;DHT22;4771;48.726;9.006;2022-11-03T03:49:28;6.30;99.90
9466;DHT22;4771;48.726;9.006;2022-11-03T03:51:55;6.30;99.90
9466;DHT22;4771;48.726;9.006;2022-11-03T03:54:22;6.30;99.90
9466;DHT22;4771;48.726;9.006;2022-11-03T03:56:55;6.30;99.90
9466;DHT22;4771;48.726;9.006;2022-11-03T03:59:26;6.20;99.90
9466;DHT22;4771;48.726;9.006;2022-11-03T04:01:53;6.20;99.90
9466;DHT22;4771;48.726;9.006;2022-11-03T04:04:20;6.20;99.90
9466;DHT22;4771;48.726;9.006;2022-11-03T04:06:47;6.10;99.90
9466;DHT22;4771;48.726;9.006;2022-11-03T04:09:14;6.10;99.90
9466;DHT22;4771;48.726;9.006;2022-11-03T04:11:41;6.00;99.90
9466;DHT22;4771;48.726;9.006;2022-11-03T04:14:27;6.10;99.90
9466;DHT22;4771;48.726;9.006;2022-11-03T04:17:18;6.10;99.90
9466;DHT22;4771;48.726;9.006;2022-11-03T04:20:03;6.10;99.90
9466;DHT22;4771;48.726;9.006;2022-11-03T04:22:48;6.00;99.90
9466;DHT22;4771;48.726;9.006;2022-11-03T04:25:15;6.10;99.90
9466;DHT22;4771;48.726;9.006;2022-11-03T04:27:42;6.00;99.90
9466;DHT22;4771;48.726;9.006;2022-11-03T04:30:15;5.90;99.90
9466;DHT22;4771;48.726;9.006;2022-11-03T04:32:43;5.90;99.90
9466;DHT22;4771;48.726;9.006;2022-11-03T04:35:15;5.90;99.90
9466;DHT22;4771;48.726;9.006;2022-11-03T04:37:43;6.00;99.90
9466;DHT22;4771;48.726;9.006;2022-11-03T04:40:14;6.10;99.90
9466;DHT22;4771;48.726;9.006;2022-11-03T04:42:42;6.10;99.90
9466;DHT22;4771;48.726;9.006;2022-11-03T04:45:21;6.20;99.90
9466;DHT22;4771;48.726;9.006;2022-11-03T04:47:49;6.10;99.90
9466;DHT22;4771;48.726;9.006;2022-11-03T04:50:18;6.10;99.90
9466;DHT22;4771;48.726;9.006;2022-11-03T04:52:46;6.20;99.90
9466;DHT22;4771;48.726;9.006;2022-11-03T04:55:15;6.00;99.90
9466;DHT22;4771;48.726;9.006;2022-11-03T04:57:42;6.00;99.90
9466;DHT22;4771;48.726;9.006;2022-11-03T05:00:15;6.00;99.90
9466;DHT22;4771;48.726;9.006;2022-11-03T05:02:43;6.00;99.90
9466;DHT22;4771;48.726;9.006;2022-11-03T05:05:16;5.90;99.90
9466;DHT22;4771;48.726;9.006;2022-11-03T05:07:44;5.90;99.90
9466;DHT22;4771;48.726;9.006;2022-11-03T05:10:15;5.90;99.90
9466;DHT22;4771;48.726;9.006;2022-11-03T05:12:43;5.80;99.90
9466;DHT22;4771;48.726;9.006;2022-11-03T05:15:27;5.80;99.90
9466;DHT22;4771;48.726;9.006;2022-11-03T05:17:56;5.80;99.90
9466;DHT22;4771;48.726;9.006;2022-11-03T05:20:29;5.80;99.90
9466;DHT22;4771;48.726;9.006;2022-11-03T05:22:56;5.80;99.90
9466;DHT22;4771;48.726;9.006;2022-11-03T05:25:41;5.90;99.90
9466;DHT22;4771;48.726;9.006;2022-11-03T05:28:15;5.70;99.90
9466;DHT22;4771;48.726;9.006;2022-11-03T05:30:47;5.80;99.90
9466;DHT22;4771;48.726;9.006;2022-11-03T05:33:21;5.80;99.90
9466;DHT22;4771;48.726;9.006;2022-11-03T05:35:48;5.80;99.90
9466;DHT22;4771;48.726;9.006;2022-11-03T05:38:18;5.80;99.90
9466;DHT22;4771;48.726;9.006;2022-11-03T05:40:49;5.80;99.90
9466;DHT22;4771;48.726;9.006;2022-11-03T05:43:17;5.70;99.90
9466;DHT22;4771;48.726;9.006;2022-11-03T05:45:47;5.70;99.90
9466;DHT22;4771;48.726;9.006;2022-11-03T05:48:26;5.70;99.90
9466;DHT22;4771;48.726;9.006;2022-11-03T05:50:53;5.70;99.90
9466;DHT22;4771;48.726;9.006;2022-11-03T05:53:27;5.70;99.90
9466;DHT22;4771;48.726;9.006;2022-11-03T05:55:57;5.70;99.90
9466;DHT22;4771;48.726;9.006;2022-11-03T05:58:27;5.70;99.90
9466;DHT22;4771;48.726;9.006;2022-11-03T06:00:56;5.70;99.90
9466;DHT22;4771;48.726;9.006;2022-11-03T06:03:28;5.60;99.90
9466;DHT22;4771;48.726;9.006;2022-11-03T06:05:56;5.70;99.90
9466;DHT22;4771;48.726;9.006;2022-11-03T06:08:29;5.70;99.90
9466;DHT22;4771;48.726;9.006;2022-11-03T06:11:00;5.80;99.90
9466;DHT22;4771;48.726;9.006;2022-11-03T06:13:31;5.70;99.90
9466;DHT22;4771;48.726;9.006;2022-11-03T06:16:03;5.70;99.90
9466;DHT22;4771;48.726;9.006;2022-11-03T06:18:33;5.60;99.90
9466;DHT22;4771;48.726;9.006;2022-11-03T06:21:06;5.70;99.90
9466;DHT22;4771;48.726;9.006;2022-11-03T06:23:34;5.70;99.90
9466;DHT22;4771;48.726;9.006;2022-11-03T06:26:02;5.60;99.90
9466;DHT22;4771;48.726;9.006;2022-11-03T06:28:33;5.70;99.90
9466;DHT22;4771;48.726;9.006;2022-11-03T06:31:13;5.70;99.90
9466;DHT22;4771;48.726;9.006;2022-11-03T06:33:43;5.70;99.90
9466;DHT22;4771;48.726;9.006;2022-11-03T06:36:18;5.70;99.90
9466;DHT22;4771;48.726;9.006;2022-11-03T06:38:48;5.80;99.90
9466;DHT22;4771;48.726;9.006;2022-11-03T06:41:22;5.90;99.90
9466;DHT22;4771;48.726;9.006;2022-11-03T06:43:50;5.90;99.90
9466;DHT22;4771;48.726;9.006;2022-11-03T06:46:21;5.90;99.90
9466;DHT22;4771;48.726;9.006;2022-11-03T06:48:50;6.00;99.90
9466;DHT22;4771;48.726;9.006;2022-11-03T06:51:19;6.10;99.90
9466;DHT22;4771;48.726;9.006;2022-11-03T06:53:47;6.10;99.90
9466;DHT22;4771;48.726;9.006;2022-11-03T06:56:17;6.10;99.90
9466;DHT22;4771;48.726;9.006;2022-11-03T06:58:45;6.20;99.90
9466;DHT22;4771;48.726;9.006;2022-11-03T07:01:15;6.30;99.90
9466;DHT22;4771;48.726;9.006;2022-11-03T07:03:45;6.40;99.90
9466;DHT22;4771;48.726;9.006;2022-11-03T07:06:16;6.50;99.90
9466;DHT22;4771;48.726;9.006;2022-11-03T07:08:47;6.60;99.90
9466;DHT22;4771;48.726;9.006;2022-11-03T07:11:16;6.70;99.90
9466;DHT22;4771;48.726;9.006;2022-11-03T07:13:44;6.80;99.90
9466;DHT22;4771;48.726;9.006;2022-11-03T07:16:14;7.00;99.90
9466;DHT22;4771;48.726;9.006;2022-11-03T07:18:42;7.10;99.90
9466;DHT22;4771;48.726;9.006;2022-11-03T07:21:33;7.20;99.90
9466;DHT22;4771;48.726;9.006;2022-11-03T07:24:03;7.30;99.90
9466;DHT22;4771;48.726;9.006;2022-11-03T07:26:35;7.30;99.90
9466;DHT22;4771;48.726;9.006;2022-11-03T07:29:03;7.40;99.90
9466;DHT22;4771;48.726;9.006;2022-11-03T07:31:30;7.50;99.90
9466;DHT22;4771;48.726;9.006;2022-11-03T07:33:58;7.70;99.90
9466;DHT22;4771;48.726;9.006;2022-11-03T07:36:27;7.70;99.90
9466;DHT22;4771;48.726;9.006;2022-11-03T07:38:59;7.80;99.90
9466;DHT22;4771;48.726;9.006;2022-11-03T07:41:30;7.90;99.90
9466;DHT22;4771;48.726;9.006;2022-11-03T07:43:59;8.00;99.90
9466;DHT22;4771;48.726;9.006;2022-11-03T07:46:26;8.00;99.90
9466;DHT22;4771;48.726;9.006;2022-11-03T07:48:56;8.10;99.90
9466;DHT22;4771;48.726;9.006;2022-11-03T07:51:25;8.20;99.90
9466;DHT22;4771;48.726;9.006;2022-11-03T07:53:55;8.20;99.90
9466;DHT22;4771;48.726;9.006;2022-11-03T07:56:25;8.20;99.90
9466;DHT22;4771;48.726;9.006;2022-11-03T07:58:57;8.20;99.90
9466;DHT22;4771;48.726;9.006;2022-11-03T08:01:26;8.20;99.90
9466;DHT22;4771;48.726;9.006;2022-11-03T08:03:57;8.40;99.90
9466;DHT22;4771;48.726;9.006;2022-11-03T08:06:25;8.40;99.90
9466;DHT22;4771;48.726;9.006;2022-11-03T08:08:52;8.50;99.90
9466;DHT22;4771;48.726;9.006;2022-11-03T08:11:19;8.70;99.90
9466;DHT22;4771;48.726;9.006;2022-11-03T08:13:49;8.80;99.90
9466;DHT22;4771;48.726;9.006;2022-11-03T08:16:17;8.90;99.90
9466;DHT22;4771;48.726;9.006;2022-11-03T08:18:44;9.20;99.90
9466;DHT22;4771;48.726;9.006;2022-11-03T08:21:11;9.50;99.90
9466;DHT22;4771;48.726;9.006;2022-11-03T08:23:39;9.70;99.90
9466;DHT22;4771;48.726;9.006;2022-11-03T08:26:06;9.80;99.90
9466;DHT22;4771;48.726;9.006;2022-11-03T08:28:33;10.00;99.90
9466;DHT22;4771;48.726;9.006;2022-11-03T08:31:01;10.20;99.90
9466;DHT22;4771;48.726;9.006;2022-11-03T08:33:30;10.30;99.90
9466;DHT22;4771;48.726;9.006;2022-11-03T08:35:59;10.60;99.90
9466;DHT22;4771;48.726;9.006;2022-11-03T08:38:27;10.80;99.90
9466;DHT22;4771;48.726;9.006;2022-11-03T08:40:55;11.00;99.90
9466;DHT22;4771;48.726;9.006;2022-11-03T08:43:23;11.10;99.90
9466;DHT22;4771;48.726;9.006;2022-11-03T08:45:50;11.40;99.90
9466;DHT22;4771;48.726;9.006;2022-11-03T08:48:20;11.60;99.90
9466;DHT22;4771;48.726;9.006;2022-11-03T08:50:47;11.60;99.90
9466;DHT22;4771;48.726;9.006;2022-11-03T08:53:15;11.80;99.90
9466;DHT22;4771;48.726;9.006;2022-11-03T08:55:42;11.90;99.90
9466;DHT22;4771;48.726;9.006;2022-11-03T08:58:09;12.00;99.90
9466;DHT22;4771;48.726;9.006;2022-11-03T09:00:36;12.10;99.90
9466;DHT22;4771;48.726;9.006;2022-11-03T09:03:03;12.20;99.90
9466;DHT22;4771;48.726;9.006;2022-11-03T09:05:31;12.10;99.90
9466;DHT22;4771;48.726;9.006;2022-11-03T09:07:58;12.40;99.90
9466;DHT22;4771;48.726;9.006;2022-11-03T09:10:25;12.60;99.90
9466;DHT22;4771;48.726;9.006;2022-11-03T09:12:52;12.90;99.90
9466;DHT22;4771;48.726;9.006;2022-11-03T09:15:19;13.00;99.90
9466;DHT22;4771;48.726;9.006;2022-11-03T09:17:46;13.20;99.90
9466;DHT22;4771;48.726;9.006;2022-11-03T09:20:13;13.30;99.90
9466;DHT22;4771;48.726;9.006;2022-11-03T09:22:42;13.40;99.90
9466;DHT22;4771;48.726;9.006;2022-11-03T09:25:09;13.60;99.90
9466;DHT22;4771;48.726;9.006;2022-11-03T09:27:36;13.70;99.90
9466;DHT22;4771;48.726;9.006;2022-11-03T09:30:04;13.80;99.90
9466;DHT22;4771;48.726;9.006;2022-11-03T09:32:31;13.60;99.90
9466;DHT22;4771;48.726;9.006;2022-11-03T09:34:59;13.60;99.90
9466;DHT22;4771;48.726;9.006;2022-11-03T09:37:26;13.60;99.90
9466;DHT22;4771;48.726;9.006;2022-11-03T09:39:54;13.40;99.90
9466;DHT22;4771;48.726;9.006;2022-11-03T09:42:22;13.30;99.90
9466;DHT22;4771;48.726;9.006;2022-11-03T09:44:51;13.20;99.90
9466;DHT22;4771;48.726;9.006;2022-11-03T09:47:23;13.10;99.90
9466;DHT22;4771;48.726;9.006;2022-11-03T09:49:54;13.00;99.90
9466;DHT22;4771;48.726;9.006;2022-11-03T09:52:30;12.90;99.90
9466;DHT22;4771;48.726;9.006;2022-11-03T09:54:58;12.80;99.90
9466;DHT22;4771;48.726;9.006;2022-11-03T09:57:26;12.60;99.90
9466;DHT22;4771;48.726;9.006;2022-11-03T09:59:54;12.50;99.90
9466;DHT22;4771;48.726;9.006;2022-11-03T10:02:25;12.40;99.90
9466;DHT22;4771;48.726;9.006;2022-11-03T10:04:53;12.40;99.90
9466;DHT22;4771;48.726;9.006;2022-11-03T10:07:22;12.30;99.90
9466;DHT22;4771;48.726;9.006;2022-11-03T10:09:52;12.30;99.90
9466;DHT22;4771;48.726;9.006;2022-11-03T10:12:20;12.30;99.90
9466;DHT22;4771;48.726;9.006;2022-11-03T10:14:48;12.40;99.90
9466;DHT22;4771;48.726;9.006;2022-11-03T10:17:17;12.40;99.90
9466;DHT22;4771;48.726;9.006;2022-11-03T10:19:47;12.50;99.90
9466;DHT22;4771;48.726;9.006;2022-11-03T10:22:15;12.60;99.90
9466;DHT22;4771;48.726;9.006;2022-11-03T10:24:42;12.60;99.90
9466;DHT22;4771;48.726;9.006;2022-11-03T10:27:21;12.60;99.90
9466;DHT22;4771;48.726;9.006;2022-11-03T10:30:05;12.70;99.90
9466;DHT22;4771;48.726;9.006;2022-11-03T10:32:33;12.60;99.90
9466;DHT22;4771;48.726;9.006;2022-11-03T10:35:00;12.70;99.90
9466;DHT22;4771;48.726;9.006;2022-11-03T10:37:27;12.60;99.90
9466;DHT22;4771;48.726;9.006;2022-11-03T10:39:55;12.70;99.90
9466;DHT22;4771;48.726;9.006;2022-11-03T10:42:26;12.90;99.90
9466;DHT22;4771;48.726;9.006;2022-11-03T10:45:10;13.10;99.90
9466;DHT22;4771;48.726;9.006;2022-11-03T10:47:37;13.30;99.90
9466;DHT22;4771;48.726;9.006;2022-11-03T10:50:25;13.50;99.90
9466;DHT22;4771;48.726;9.006;2022-11-03T10:52:53;14.00;99.90
9466;DHT22;4771;48.726;9.006;2022-11-03T10:55:22;14.20;99.90
9466;DHT22;4771;48.726;9.006;2022-11-03T10:57:51;14.20;99.90
9466;DHT22;4771;48.726;9.006;2022-11-03T11:00:20;14.00;99.90
9466;DHT22;4771;48.726;9.006;2022-11-03T11:02:48;14.10;99.90
9466;DHT22;4771;48.726;9.006;2022-11-03T11:05:19;14.00;99.90
9466;DHT22;4771;48.726;9.006;2022-11-03T11:07:47;14.00;99.90
9466;DHT22;4771;48.726;9.006;2022-11-03T11:10:19;13.70;99.90
9466;DHT22;4771;48.726;9.006;2022-11-03T11:13:25;13.70;99.90
9466;DHT22;4771;48.726;9.006;2022-11-03T11:15:53;13.70;99.90
9466;DHT22;4771;48.726;9.006;2022-11-03T11:25:00;14.00;99.90
9466;DHT22;4771;48.726;9.006;2022-11-03T11:27:56;13.90;99.90
9466;DHT22;4771;48.726;9.006;2022-11-03T11:33:33;14.30;99.90
9466;DHT22;4771;48.726;9.006;2022-11-03T11:36:19;14.30;99.90
9466;DHT22;4771;48.726;9.006;2022-11-03T11:38:57;14.30;99.90
9466;DHT22;4771;48.726;9.006;2022-11-03T11:44:57;14.40;99.90
9466;DHT22;4771;48.726;9.006;2022-11-03T11:50:20;14.40;99.90
9466;DHT22;4771;48.726;9.006;2022-11-03T11:52:54;14.30;99.90
9466;DHT22;4771;48.726;9.006;2022-11-03T11:55:28;14.30;99.90
9466;DHT22;4771;48.726;9.006;2022-11-03T11:57:58;14.40;99.90
9466;DHT22;4771;48.726;9.006;2022-11-03T12:00:26;14.40;99.90
9466;DHT22;4771;48.726;9.006;2022-11-03T12:02:54;14.40;99.90
9466;DHT22;4771;48.726;9.006;2022-11-03T12:05:25;14.50;99.90
9466;DHT22;4771;48.726;9.006;2022-11-03T12:07:53;14.40;99.90
9466;DHT22;4771;48.726;9.006;2022-11-03T12:10:22;14.50;99.90
9466;DHT22;4771;48.726;9.006;2022-11-03T12:12:51;14.50;99.90
9466;DHT22;4771;48.726;9.006;2022-11-03T12:15:47;14.40;99.90
9466;DHT22;4771;48.726;9.006;2022-11-03T12:18:34;14.40;99.90
9466;DHT22;4771;48.726;9.006;2022-11-03T12:21:04;14.20;99.90
9466;DHT22;4771;48.726;9.006;2022-11-03T12:23:33;14.20;99.90
9466;DHT22;4771;48.726;9.006;2022-11-03T12:26:00;14.20;99.90
9466;DHT22;4771;48.726;9.006;2022-11-03T12:28:32;14.20;99.90
9466;DHT22;4771;48.726;9.006;2022-11-03T12:31:00;14.20;99.90
9466;DHT22;4771;48.726;9.006;2022-11-03T12:33:27;14.20;99.90
9466;DHT22;4771;48.726;9.006;2022-11-03T12:35:54;14.30;99.90
9466;DHT22;4771;48.726;9.006;2022-11-03T12:38:23;14.30;99.90
9466;DHT22;4771;48.726;9.006;2022-11-03T12:40:51;14.40;99.90
9466;DHT22;4771;48.726;9.006;2022-11-03T12:43:19;14.40;99.90
9466;DHT22;4771;48.726;9.006;2022-11-03T12:45:46;14.40;99.90
9466;DHT22;4771;48.726;9.006;2022-11-03T12:48:13;14.40;99.90
9466;DHT22;4771;48.726;9.006;2022-11-03T12:50:40;14.40;99.90
9466;DHT22;4771;48.726;9.006;2022-11-03T12:53:07;14.30;99.90
9466;DHT22;4771;48.726;9.006;2022-11-03T12:55:35;14.30;99.90
9466;DHT22;4771;48.726;9.006;2022-11-03T12:58:02;14.20;99.90
9466;DHT22;4771;48.726;9.006;2022-11-03T13:00:29;14.10;99.90
9466;DHT22;4771;48.726;9.006;2022-11-03T13:02:56;14.20;99.90
9466;DHT22;4771;48.726;9.006;2022-11-03T13:05:23;14.30;99.90
9466;DHT22;4771;48.726;9.006;2022-11-03T13:07:50;14.20;99.90
9466;DHT22;4771;48.726;9.006;2022-11-03T13:10:17;14.20;99.90
9466;DHT22;4771;48.726;9.006;2022-11-03T13:12:46;14.30;99.90
9466;DHT22;4771;48.726;9.006;2022-11-03T13:15:13;14.30;99.90
9466;DHT22;4771;48.726;9.006;2022-11-03T13:17:41;14.20;99.90
9466;DHT22;4771;48.726;9.006;2022-11-03T13:20:09;14.30;99.90
9466;DHT22;4771;48.726;9.006;2022-11-03T13:22:39;14.20;99.90
9466;DHT22;4771;48.726;9.006;2022-11-03T13:25:07;14.20;99.90
9466;DHT22;4771;48.726;9.006;2022-11-03T13:27:34;14.10;99.90
9466;DHT22;4771;48.726;9.006;2022-11-03T13:30:03;14.20;99.90
9466;DHT22;4771;48.726;9.006;2022-11-03T13:32:30;14.20;99.90
9466;DHT22;4771;48.726;9.006;2022-11-03T13:34:57;14.20;99.90
9466;DHT22;4771;48.726;9.006;2022-11-03T13:37:24;14.30;99.90
9466;DHT22;4771;48.726;9.006;2022-11-03T13:39:51;14.30;99.90
9466;DHT22;4771;48.726;9.006;2022-11-03T13:42:18;14.20;99.90
9466;DHT22;4771;48.726;9.006;2022-11-03T13:44:45;14.20;99.90
9466;DHT22;4771;48.726;9.006;2022-11-03T13:47:13;14.30;99.90
9466;DHT22;4771;48.726;9.006;2022-11-03T13:49:40;14.30;99.90
9466;DHT22;4771;48.726;9.006;2022-11-03T13:52:07;14.30;99.90
9466;DHT22;4771;48.726;9.006;2022-11-03T13:54:34;14.30;99.90
9466;DHT22;4771;48.726;9.006;2022-11-03T13:57:01;14.20;99.90
9466;DHT22;4771;48.726;9.006;2022-11-03T13:59:28;14.20;99.90
9466;DHT22;4771;48.726;9.006;2022-11-03T14:01:55;14.30;99.90
9466;DHT22;4771;48.726;9.006;2022-11-03T14:04:24;14.10;99.90
9466;DHT22;4771;48.726;9.006;2022-11-03T14:06:51;14.10;99.90
9466;DHT22;4771;48.726;9.006;2022-11-03T14:09:18;14.00;99.90
9466;DHT22;4771;48.726;9.006;2022-11-03T14:11:45;14.10;99.90
9466;DHT22;4771;48.726;9.006;2022-11-03T14:14:29;14.10;99.90
9466;DHT22;4771;48.726;9.006;2022-11-03T14:16:56;14.10;99.90
9466;DHT22;4771;48.726;9.006;2022-11-03T14:19:25;14.10;99.90
9466;DHT22;4771;48.726;9.006;2022-11-03T14:21:56;14.10;99.90
9466;DHT22;4771;48.726;9.006;2022-11-03T14:24:22;14.20;99.90
9466;DHT22;4771;48.726;9.006;2022-11-03T14:26:49;14.20;99.90
9466;DHT22;4771;48.726;9.006;2022-11-03T14:29:16;14.20;99.90
9466;DHT22;4771;48.726;9.006;2022-11-03T14:31:45;14.10;99.90
9466;DHT22;4771;48.726;9.006;2022-11-03T14:34:12;14.00;99.90
9466;DHT22;4771;48.726;9.006;2022-11-03T14:36:41;14.00;99.90
9466;DHT22;4771;48.726;9.006;2022-11-03T14:39:08;13.90;99.90
9466;DHT22;4771;48.726;9.006;2022-11-03T14:41:35;13.80;99.90
9466;DHT22;4771;48.726;9.006;2022-11-03T14:44:19;13.80;99.90
9466;DHT22;4771;48.726;9.006;2022-11-03T14:46:46;13.80;99.90
9466;DHT22;4771;48.726;9.006;2022-11-03T14:49:13;13.80;99.90
9466;DHT22;4771;48.726;9.006;2022-11-03T14:51:41;13.70;99.90
9466;DHT22;4771;48.726;9.006;2022-11-03T14:54:08;13.70;99.90
9466;DHT22;4771;48.726;9.006;2022-11-03T14:56:35;13.60;99.90
9466;DHT22;4771;48.726;9.006;2022-11-03T14:59:02;13.60;99.90
9466;DHT22;4771;48.726;9.006;2022-11-03T15:01:30;13.50;99.90
9466;DHT22;4771;48.726;9.006;2022-11-03T15:03:57;13.50;99.90
9466;DHT22;4771;48.726;9.006;2022-11-03T15:06:24;13.60;99.90
9466;DHT22;4771;48.726;9.006;2022-11-03T15:08:52;13.60;99.90
9466;DHT22;4771;48.726;9.006;2022-11-03T15:11:19;13.60;99.90
9466;DHT22;4771;48.726;9.006;2022-11-03T15:13:46;13.60;99.90
9466;DHT22;4771;48.726;9.006;2022-11-03T15:16:13;13.50;99.90
9466;DHT22;4771;48.726;9.006;2022-11-03T15:18:40;13.40;99.90
9466;DHT22;4771;48.726;9.006;2022-11-03T15:21:08;13.40;99.90
9466;DHT22;4771;48.726;9.006;2022-11-03T15:23:36;13.40;99.90
9466;DHT22;4771;48.726;9.006;2022-11-03T15:26:04;13.50;99.90
9466;DHT22;4771;48.726;9.006;2022-11-03T15:28:31;13.40;99.90
9466;DHT22;4771;48.726;9.006;2022-11-03T15:30:58;13.50;99.90
9466;DHT22;4771;48.726;9.006;2022-11-03T15:33:26;13.50;99.90
9466;DHT22;4771;48.726;9.006;2022-11-03T15:35:53;13.50;99.90
9466;DHT22;4771;48.726;9.006;2022-11-03T15:38:20;13.50;99.90
9466;DHT22;4771;48.726;9.006;2022-11-03T15:40:47;13.50;99.90
9466;DHT22;4771;48.726;9.006;2022-11-03T15:43:15;13.40;99.90
9466;DHT22;4771;48.726;9.006;2022-11-03T15:45:42;13.40;99.90
9466;DHT22;4771;48.726;9.006;2022-11-03T15:48:09;13.40;99.90
9466;DHT22;4771;48.726;9.006;2022-11-03T15:50:36;13.30;99.90
9466;DHT22;4771;48.726;9.006;2022-11-03T15:53:03;13.30;99.90
9466;DHT22;4771;48.726;9.006;2022-11-03T15:55:30;13.20;99.90
9466;DHT22;4771;48.726;9.006;2022-11-03T15:57:59;13.20;99.90
9466;DHT22;4771;48.726;9.006;2022-11-03T16:00:27;13.20;99.90
9466;DHT22;4771;48.726;9.006;2022-11-03T16:02:54;13.10;99.90
9466;DHT22;4771;48.726;9.006;2022-11-03T16:05:21;13.10;99.90
9466;DHT22;4771;48.726;9.006;2022-11-03T16:07:48;13.00;99.90
9466;DHT22;4771;48.726;9.006;2022-11-03T16:10:15;13.00;99.90
9466;DHT22;4771;48.726;9.006;2022-11-03T16:12:42;12.90;99.90
9466;DHT22;4771;48.726;9.006;2022-11-03T16:15:10;12.80;99.90
9466;DHT22;4771;48.726;9.006;2022-11-03T16:17:38;12.80;99.90
9466;DHT22;4771;48.726;9.006;2022-11-03T16:20:06;12.80;99.90
9466;DHT22;4771;48.726;9.006;2022-11-03T16:22:34;12.80;99.90
9466;DHT22;4771;48.726;9.006;2022-11-03T16:25:01;12.90;99.90
9466;DHT22;4771;48.726;9.006;2022-11-03T16:27:28;12.80;99.90
9466;DHT22;4771;48.726;9.006;2022-11-03T16:29:55;12.90;99.90
9466;DHT22;4771;48.726;9.006;2022-11-03T16:32:22;12.90;99.90
9466;DHT22;4771;48.726;9.006;2022-11-03T16:34:50;12.80;99.90
9466;DHT22;4771;48.726;9.006;2022-11-03T16:37:17;12.90;99.90
9466;DHT22;4771;48.726;9.006;2022-11-03T16:39:44;12.90;99.90
9466;DHT22;4771;48.726;9.006;2022-11-03T16:42:11;12.90;99.90